Mount Pleasant, MS

2:39 PM CST on March 05, 2015 (GMT -0600)
University-Oxford | Change Station
CLOSE
Current Station
Airport
Location: Oxford,
Elevation: 453 ft
Nearby Weather Stations

Elev 453 ft 34.38 °N, 89.54 °W | Updated 24 minutes ago

Clear
Clear
28 °F
Feels Like 17 °F
N
15
Wind Variable Wind from NNW
Gusts 21 mph

Today
High -- | Low -- °F
--% Chance of Precip.
Yesterday
High -- | Low -- °F
Precip. -- in
6:22 AM 5:56 PM
Full, 100% visible
Pressure 30.47 in
Visibility 9.0 miles
Clouds Clear
Windchill 17 °F
Dew Point 16 °F
Humidity 59%
Rainfall 0.00 in
Snow Depth Not available.
UV 5 out of 12
Pollen .90 out of 12
Air Quality Not available.
Flu Activity Not available.
METAR KUOX 052015Z AUTO 34013G18KT 9SM CLR M02/M09 A3047 RMK AO2 PWINO PNO

More Conditions Fewer Conditions

Pressure 30.47 in
Visibility 9.0 miles
Clouds Clear
Windchill 17 °F
Dew Point 16 °F
Humidity 59%
Rainfall 0.00 in
Snow Depth Not available.
UV 5 out of 12
Pollen .90 out of 12
Air Quality Not available.
Flu Activity Not available.
METAR KUOX 052015Z AUTO 34013G18KT 9SM CLR M02/M09 A3047 RMK AO2 PWINO PNO

More Conditions Fewer Conditions

10-Day Weather Forecast

Almanac

Astronomy

Mar. 05, 2015 Rise Set
Actual Time
Civil Twilight
Nautical Twilight
Astronomical Twilight
Moon
Length of Visible Light
Length of Day
Tomorrow will be .
, % of the Moon is Illuminated

Today's Extremes

State Highs State Lows

Community

WunderPhotos

Upload Photos

1,802,952 photos uploaded!

WunderBlogs® & News

Nearby

Air Quality

  Air Quality AQ Index Pollutant
Not available.

Snow Depth

Station Depth Elevation

Earthquake Activity

City Distance Mag. Time & Date
Minimum magnitude displayed is 2.5.

Coastal Water Temperatures

Place Temperature

Nearby Weather Stations

Wind Chill Advisory
Statement as of 11:27 AM CST on March 05, 2015

... Wind Chill Advisory remains in effect from midnight tonight to
10 am CST Friday...

* wind chill values... zero to -5 degrees.

* Timing... from midnight tonight through 10 am CST Friday
morning.

* Impacts... exposed skin for a prolonged duration may cause
frostbite.

.Precautionary/preparedness actions...

A Wind Chill Advisory means that very cold air and strong winds
will combine to generate low wind chills. This will result in
frost bite and lead to hypothermia if precautions are not taken.
If you must venture outdoors... make sure you wear a hat and
gloves.



Krm